Time;durP1;ratioP1;P1;durP2;ratioP2;P2;SDS_P1;SDS_P2;PMS_P1;PMS_P2;Temp;Humidity;BMP_temperature;BMP_pressure;BME280_temperature;BME280_humidity;BME280_pressure;Samples;Min_cycle;Max_cycle;Signal;HPM_P1;HPM_P2
2023/06/11 00:01:29;;;;;;;14.20;3.70;;;;;;;15.67;56.41;100488.38;109130;1267;22551;-84
2023/06/11 00:04:26;;;;;;;15.30;3.50;;;;;;;15.59;56.87;100486.36;109232;1269;22550;-84
2023/06/11 00:06:58;;;;;;;12.00;3.60;;;;;;;15.54;57.13;100488.09;109137;1275;22580;-84
2023/06/11 00:09:29;;;;;;;12.60;3.00;;;;;;;15.49;57.43;100485.98;109224;1269;22594;-84
2023/06/11 00:12:00;;;;;;;10.30;3.10;;;;;;;15.44;57.72;100485.23;109216;1271;22572;-84
2023/06/11 00:14:32;;;;;;;9.70;3.20;;;;;;;15.39;58.28;100487.09;109236;1271;22545;-83
2023/06/11 00:17:04;;;;;;;9.60;3.30;;;;;;;15.32;58.61;100483.53;109120;1269;22665;-84
2023/06/11 00:19:34;;;;;;;10.70;3.50;;;;;;;15.26;58.80;100488.16;109106;1269;22542;-84
2023/06/11 00:22:06;;;;;;;15.80;3.70;;;;;;;15.18;59.10;100490.02;109212;1272;22491;-84
2023/06/11 00:24:37;;;;;;;11.90;3.10;;;;;;;15.13;59.58;100491.53;109160;1270;22644;-84
2023/06/11 00:27:08;;;;;;;10.90;3.20;;;;;;;15.07;59.93;100490.12;109291;1271;23192;-84
2023/06/11 00:29:39;;;;;;;10.00;3.70;;;;;;;15.01;60.29;100491.33;109326;1271;22599;-85
2023/06/11 00:32:12;;;;;;;9.70;3.20;;;;;;;14.96;60.63;100490.44;109230;1268;22518;-84
2023/06/11 00:34:42;;;;;;;11.20;3.30;;;;;;;14.90;60.82;100494.19;109236;1270;25482;-84
2023/06/11 00:37:13;;;;;;;15.30;3.40;;;;;;;14.85;61.07;100489.70;109194;1269;22513;-84
2023/06/11 00:39:45;;;;;;;14.00;4.10;;;;;;;14.80;61.38;100491.88;109164;1271;22539;-84
2023/06/11 00:42:19;;;;;;;10.10;3.50;;;;;;;14.75;61.76;100493.84;109096;1268;24959;-84
2023/06/11 00:44:51;;;;;;;10.90;3.70;;;;;;;14.69;61.96;100492.46;109030;1268;22559;-84
2023/06/11 00:47:23;;;;;;;12.80;3.80;;;;;;;14.63;61.90;100488.80;109036;1268;22611;-84
2023/06/11 00:49:56;;;;;;;9.50;3.00;;;;;;;14.57;62.32;100487.90;109063;1275;22794;-84
2023/06/11 00:52:27;;;;;;;9.20;3.40;;;;;;;14.54;62.89;100495.90;109112;1269;25918;-84
2023/06/11 00:54:58;;;;;;;12.60;3.90;;;;;;;14.49;63.05;100492.80;109088;1275;23029;-84
2023/06/11 00:57:29;;;;;;;11.30;3.70;;;;;;;14.43;63.36;100499.04;109131;1275;22540;-84
2023/06/11 01:00:00;;;;;;;12.10;3.80;;;;;;;14.40;63.61;100503.05;109206;1275;22531;-84
2023/06/11 01:02:47;;;;;;;11.70;3.50;;;;;;;14.35;63.74;100506.54;109083;1269;24413;-84
2023/06/11 01:05:22;;;;;;;12.50;4.70;;;;;;;14.29;64.10;100505.70;109074;1268;22606;-84
2023/06/11 01:07:57;;;;;;;15.10;3.80;;;;;;;14.24;64.41;100512.23;109014;1268;22557;-84
2023/06/11 01:10:29;;;;;;;13.30;4.20;;;;;;;14.19;64.71;100511.93;109144;1269;25399;-84
2023/06/11 01:13:01;;;;;;;14.20;3.70;;;;;;;14.13;64.90;100511.94;109048;1275;25409;-84
2023/06/11 01:15:32;;;;;;;12.60;4.10;;;;;;;14.10;65.14;100512.94;109144;1275;22589;-84
2023/06/11 01:18:10;;;;;;;14.30;4.30;;;;;;;14.07;65.39;100514.98;109182;1268;22618;-84
2023/06/11 01:20:49;;;;;;;10.70;3.20;;;;;;;14.02;65.57;100519.23;108951;1275;22551;-84
2023/06/11 01:23:41;;;;;;;13.00;4.20;;;;;;;13.97;65.82;100518.58;109051;1271;22592;-83
2023/06/11 01:26:44;;;;;;;15.70;5.00;;;;;;;13.95;66.05;100520.33;109007;1273;22537;-84
2023/06/11 01:29:16;;;;;;;18.70;4.40;;;;;;;13.94;66.26;100523.14;109099;1268;22514;-84
2023/06/11 01:31:48;;;;;;;16.80;4.40;;;;;;;13.90;66.68;100528.35;109056;1271;22592;-84
2023/06/11 01:34:19;;;;;;;13.70;4.20;;;;;;;13.87;66.86;100528.31;109127;1275;23116;-84
2023/06/11 01:36:50;;;;;;;14.00;4.80;;;;;;;13.79;67.22;100530.28;108985;1275;22548;-84
2023/06/11 01:39:21;;;;;;;14.40;4.50;;;;;;;13.73;67.28;100532.06;109019;1271;22613;-84
2023/06/11 01:41:54;;;;;;;12.40;4.20;;;;;;;13.67;67.26;100529.29;109071;1272;22521;-84
2023/06/11 01:44:25;;;;;;;13.20;4.80;;;;;;;13.65;67.85;100536.00;109035;1272;23280;-83
2023/06/11 01:46:56;;;;;;;14.30;4.60;;;;;;;13.61;68.15;100538.60;108931;1268;22545;-84
2023/06/11 01:49:27;;;;;;;10.80;4.10;;;;;;;13.56;68.37;100539.87;108824;1269;22516;-83
2023/06/11 01:51:57;;;;;;;15.00;4.20;;;;;;;13.51;68.55;100539.92;108849;1268;22543;-84
2023/06/11 01:54:28;;;;;;;12.40;4.10;;;;;;;13.48;68.69;100543.09;108900;1268;22590;-83
2023/06/11 01:56:59;;;;;;;15.10;5.90;;;;;;;13.44;69.03;100544.52;108943;1271;22522;-83
2023/06/11 01:59:30;;;;;;;14.00;4.90;;;;;;;13.41;69.36;100546.80;109002;1268;22806;-83
2023/06/11 02:02:01;;;;;;;17.60;5.50;;;;;;;13.37;69.65;100547.98;109012;1275;22514;-84
2023/06/11 02:04:32;;;;;;;15.30;5.30;;;;;;;13.37;69.97;100548.71;109073;1268;24245;-83
2023/06/11 02:07:03;;;;;;;17.30;5.30;;;;;;;13.38;70.21;100550.98;109116;1269;22673;-84
2023/06/11 02:09:34;;;;;;;14.40;5.60;;;;;;;13.40;70.74;100552.06;108920;1275;22559;-84
2023/06/11 02:12:07;;;;;;;13.00;5.40;;;;;;;13.39;70.53;100553.54;109021;1272;22542;-84
2023/06/11 02:14:38;;;;;;;15.20;5.40;;;;;;;13.40;70.77;100556.30;109051;1269;22576;-83
2023/06/11 02:17:10;;;;;;;12.70;4.90;;;;;;;13.39;70.79;100557.50;109016;1268;25424;-83
2023/06/11 02:19:41;;;;;;;16.10;6.30;;;;;;;13.36;71.17;100559.92;109389;1268;22595;-87
2023/06/11 02:22:12;;;;;;;14.60;5.70;;;;;;;13.33;71.35;100568.81;109665;1269;24255;-88
2023/06/11 02:24:43;;;;;;;16.00;5.80;;;;;;;13.29;71.60;100568.71;109545;1275;23078;-88
2023/06/11 02:27:14;;;;;;;15.70;6.10;;;;;;;13.26;71.72;100571.16;109533;1269;23403;-88
2023/06/11 02:29:45;;;;;;;15.70;5.30;;;;;;;13.23;71.64;100574.28;109656;1270;22693;-88
2023/06/11 02:32:20;;;;;;;13.60;5.10;;;;;;;13.22;72.21;100574.36;109636;1275;24212;-88
2023/06/11 02:34:51;;;;;;;15.50;5.80;;;;;;;13.22;72.36;100579.36;109544;1275;22511;-88
2023/06/11 02:37:23;;;;;;;15.50;6.10;;;;;;;13.24;72.57;100577.55;109562;1275;22672;-87
2023/06/11 02:39:53;;;;;;;12.40;5.70;;;;;;;13.23;72.62;100582.42;109549;1275;22655;-87
2023/06/11 02:42:25;;;;;;;15.60;6.00;;;;;;;13.21;72.85;100580.63;109572;1269;22547;-88
2023/06/11 02:44:56;;;;;;;13.80;5.20;;;;;;;13.21;73.04;100581.33;109570;1271;22558;-88
2023/06/11 02:47:27;;;;;;;18.00;6.30;;;;;;;13.19;73.13;100582.47;109688;1272;23864;-87
2023/06/11 02:49:59;;;;;;;15.90;6.60;;;;;;;13.17;73.49;100587.30;109606;1269;22630;-88
2023/06/11 02:52:30;;;;;;;18.20;6.80;;;;;;;13.16;73.68;100591.50;109660;1268;23523;-87
2023/06/11 02:55:01;;;;;;;20.40;7.30;;;;;;;13.17;73.81;100593.09;109632;1275;22565;-87
2023/06/11 02:57:33;;;;;;;18.30;7.80;;;;;;;13.18;74.09;100597.91;109578;1271;23810;-88
2023/06/11 03:00:04;;;;;;;18.90;8.00;;;;;;;13.18;74.21;100602.65;109707;1268;22534;-87
2023/06/11 03:02:35;;;;;;;17.00;7.60;;;;;;;13.17;74.33;100599.63;110031;1271;22522;-87
2023/06/11 03:05:08;;;;;;;16.60;7.60;;;;;;;13.17;74.62;100598.66;110023;1271;22556;-89
2023/06/11 03:07:39;;;;;;;15.70;7.30;;;;;;;13.17;74.65;100603.86;109642;1268;22574;-88
2023/06/11 03:10:11;;;;;;;17.90;7.40;;;;;;;13.21;75.13;100607.58;109538;1269;22782;-88
2023/06/11 03:12:42;;;;;;;19.90;7.80;;;;;;;13.25;75.35;100604.64;109589;1275;23901;-87
2023/06/11 03:15:13;;;;;;;17.80;6.60;;;;;;;13.27;75.49;100604.10;109578;1267;22576;-87
2023/06/11 03:17:45;;;;;;;15.30;6.70;;;;;;;13.28;75.70;100608.66;109727;1271;23344;-87
2023/06/11 03:20:15;;;;;;;14.40;6.70;;;;;;;13.29;76.03;100607.55;109528;1271;22562;-88
2023/06/11 03:22:46;;;;;;;16.90;7.70;;;;;;;13.31;76.00;100608.65;109697;1270;22554;-88
2023/06/11 03:25:17;;;;;;;19.30;8.00;;;;;;;13.33;76.36;100608.88;109624;1268;22604;-88
2023/06/11 03:27:48;;;;;;;16.10;6.50;;;;;;;13.34;76.60;100612.98;109576;1275;22551;-87
2023/06/11 03:30:19;;;;;;;16.80;7.40;;;;;;;13.35;76.60;100611.70;109614;1268;22572;-88
2023/06/11 03:32:50;;;;;;;18.40;7.20;;;;;;;13.36;76.85;100612.64;109660;1269;23024;-88
2023/06/11 03:35:21;;;;;;;15.50;6.80;;;;;;;13.38;77.17;100614.25;109518;1271;22614;-88
2023/06/11 03:37:52;;;;;;;20.90;7.70;;;;;;;13.41;77.22;100616.95;109525;1265;22543;-88
2023/06/11 03:40:23;;;;;;;16.20;6.80;;;;;;;13.44;77.22;100618.20;109665;1268;22536;-87
2023/06/11 03:42:54;;;;;;;17.90;7.50;;;;;;;13.47;77.69;100616.67;109573;1275;23943;-87
2023/06/11 03:45:25;;;;;;;16.70;7.10;;;;;;;13.51;77.88;100622.31;109631;1271;22722;-87
2023/06/11 03:47:57;;;;;;;19.20;7.90;;;;;;;13.54;77.88;100623.58;109655;1275;25062;-88
2023/06/11 03:50:29;;;;;;;16.00;8.40;;;;;;;13.58;78.28;100628.23;109568;1268;22544;-88
2023/06/11 03:53:00;;;;;;;19.70;8.80;;;;;;;13.63;78.42;100628.55;109682;1271;22540;-87
2023/06/11 03:55:31;;;;;;;17.80;8.40;;;;;;;13.68;78.77;100623.27;109686;1269;24249;-88
2023/06/11 03:58:03;;;;;;;19.70;8.80;;;;;;;13.77;78.68;100624.09;109653;1268;22576;-87
2023/06/11 04:00:34;;;;;;;16.90;8.00;;;;;;;13.84;78.67;100625.30;109574;1268;23275;-87
2023/06/11 04:03:05;;;;;;;18.70;7.90;;;;;;;13.90;78.56;100624.70;109623;1271;22536;-88
2023/06/11 04:05:38;;;;;;;18.30;8.50;;;;;;;13.96;78.70;100629.05;109615;1271;22671;-88
2023/06/11 04:08:10;;;;;;;21.40;9.10;;;;;;;14.04;78.94;100631.18;109599;1268;22796;-88
2023/06/11 04:10:41;;;;;;;17.00;8.10;;;;;;;14.08;79.25;100631.44;109668;1269;22629;-88
2023/06/11 04:13:12;;;;;;;17.40;9.40;;;;;;;14.15;79.73;100633.50;109647;1264;22654;-88
2023/06/11 04:15:43;;;;;;;22.40;10.00;;;;;;;14.23;79.75;100633.65;109496;1273;22550;-88
2023/06/11 04:18:14;;;;;;;20.60;11.40;;;;;;;14.35;79.98;100635.73;109597;1268;22517;-88
2023/06/11 04:20:45;;;;;;;20.20;10.90;;;;;;;14.47;80.39;100635.95;109591;1268;22547;-88
2023/06/11 04:23:16;;;;;;;24.90;10.30;;;;;;;14.58;80.29;100635.09;109632;1275;22586;-87
2023/06/11 04:25:48;;;;;;;20.80;10.90;;;;;;;14.71;80.06;100639.02;109685;1268;22536;-88
2023/06/11 04:28:23;;;;;;;21.20;10.80;;;;;;;14.83;80.46;100640.36;109687;1269;22717;-89
2023/06/11 04:30:57;;;;;;;20.60;10.80;;;;;;;14.94;80.37;100644.27;109584;1269;22683;-88
2023/06/11 04:33:32;;;;;;;20.60;10.30;;;;;;;15.06;80.45;100646.52;109595;1268;22597;-88
2023/06/11 04:36:09;;;;;;;22.10;11.60;;;;;;;15.15;80.27;100645.86;109650;1275;22543;-88
2023/06/11 04:38:44;;;;;;;23.10;10.70;;;;;;;15.27;80.54;100640.91;109714;1271;22579;-89
2023/06/11 04:41:32;;;;;;;24.70;12.20;;;;;;;15.38;80.48;100643.36;109600;1268;22852;-88
2023/06/11 04:44:03;;;;;;;18.50;10.30;;;;;;;15.53;80.82;100642.95;109619;1269;22486;-87
2023/06/11 04:46:43;;;;;;;20.40;10.80;;;;;;;15.65;80.85;100642.95;109634;1271;25288;-88
2023/06/11 04:49:20;;;;;;;21.70;10.80;;;;;;;15.79;80.59;100648.05;109664;1264;22605;-89
2023/06/11 04:51:52;;;;;;;20.40;11.30;;;;;;;15.93;80.50;100646.45;109585;1275;22562;-88
2023/06/11 04:54:24;;;;;;;21.00;10.00;;;;;;;16.08;80.66;100650.55;109617;1271;24199;-87
2023/06/11 04:56:55;;;;;;;18.90;9.40;;;;;;;16.22;80.59;100651.98;109628;1269;23410;-88
2023/06/11 04:59:26;;;;;;;19.30;11.20;;;;;;;16.38;80.55;100653.40;109616;1274;22646;-88
2023/06/11 05:01:57;;;;;;;19.60;10.00;;;;;;;16.52;80.02;100650.77;109647;1268;22515;-88
2023/06/11 05:04:28;;;;;;;19.80;9.80;;;;;;;16.67;79.86;100654.44;109669;1268;23333;-88
2023/06/11 05:07:00;;;;;;;21.90;11.20;;;;;;;16.80;79.39;100655.84;109553;1275;22615;-87
2023/06/11 05:09:31;;;;;;;23.20;11.20;;;;;;;16.95;79.22;100657.52;109655;1265;22490;-87
2023/06/11 05:12:02;;;;;;;19.70;11.10;;;;;;;17.06;79.36;100659.16;109537;1270;22737;-88
2023/06/11 05:14:33;;;;;;;22.30;11.10;;;;;;;17.16;79.19;100660.85;109598;1268;25424;-88
2023/06/11 05:17:03;;;;;;;18.10;9.10;;;;;;;17.26;78.96;100657.64;109643;1271;23362;-88
2023/06/11 05:19:34;;;;;;;20.80;10.00;;;;;;;17.38;78.65;100660.55;109609;1269;22536;-88
2023/06/11 05:22:06;;;;;;;16.10;9.30;;;;;;;17.48;78.56;100664.34;109513;1268;23198;-89
2023/06/11 05:24:41;;;;;;;20.00;9.80;;;;;;;17.59;78.44;100666.38;109730;1275;25233;-87
2023/06/11 05:27:12;;;;;;;22.40;10.40;;;;;;;17.72;78.00;100670.35;109679;1271;22542;-90
2023/06/11 05:29:50;;;;;;;18.60;9.90;;;;;;;17.79;77.85;100669.97;109792;1268;22526;-91
2023/06/11 05:32:22;;;;;;;;;;;;;;;17.89;77.37;100669.78;109838;1273;22545;-91
2023/06/11 05:34:54;;;;;;;17.00;8.80;;;;;;;17.99;77.46;100669.93;109756;1267;22667;-89
2023/06/11 05:37:29;;;;;;;19.70;11.10;;;;;;;18.09;77.57;100671.85;109746;1275;22580;-90
2023/06/11 05:40:00;;;;;;;19.50;9.60;;;;;;;18.21;77.21;100673.48;109731;1275;22536;-90
2023/06/11 05:42:31;;;;;;;18.60;8.80;;;;;;;18.33;77.05;100672.28;109750;1269;22488;-91
2023/06/11 05:45:02;;;;;;;17.60;8.80;;;;;;;18.42;76.87;100676.61;109694;1256;22584;-90
2023/06/11 05:47:34;;;;;;;20.20;10.30;;;;;;;18.55;76.63;100677.58;109680;1271;22541;-89
2023/06/11 05:50:06;;;;;;;15.60;8.00;;;;;;;18.68;76.32;100675.44;109807;1268;23539;-89
2023/06/11 05:52:37;;;;;;;18.20;8.40;;;;;;;18.77;75.90;100682.52;109785;1268;22545;-89
2023/06/11 05:55:09;;;;;;;16.60;7.80;;;;;;;18.88;75.54;100688.96;109767;1268;22548;-90
2023/06/11 05:57:40;;;;;;;17.80;8.40;;;;;;;18.97;75.30;100684.47;109763;1275;22586;-90
2023/06/11 06:00:12;;;;;;;15.60;7.70;;;;;;;19.05;75.24;100684.31;109684;1271;22613;-89
2023/06/11 06:02:43;;;;;;;15.80;7.80;;;;;;;19.13;75.01;100686.74;109760;1268;23214;-90
2023/06/11 06:05:15;;;;;;;15.90;8.00;;;;;;;19.22;74.52;100696.85;109731;1275;22555;-90
2023/06/11 06:07:51;;;;;;;15.70;7.60;;;;;;;19.31;74.44;100698.23;109720;1268;22479;-89
2023/06/11 06:10:25;;;;;;;15.00;6.60;;;;;;;19.42;74.14;100701.48;109663;1267;23499;-86
2023/06/11 06:12:56;;;;;;;15.50;6.40;;;;;;;19.49;73.72;100703.33;109377;1275;22543;-86
2023/06/11 06:15:27;;;;;;;13.20;6.50;;;;;;;19.53;73.62;100708.48;109484;1272;22535;-87
2023/06/11 06:17:59;;;;;;;16.30;6.80;;;;;;;19.60;73.19;100708.72;109470;1268;22838;-84
2023/06/11 06:20:30;;;;;;;15.20;6.10;;;;;;;19.63;72.98;100711.77;109396;1268;22528;-85
2023/06/11 06:23:01;;;;;;;15.80;6.50;;;;;;;19.69;72.42;100712.59;109453;1269;22619;-86
2023/06/11 06:25:33;;;;;;;13.00;6.10;;;;;;;19.74;71.96;100709.91;109482;1269;22658;-86
2023/06/11 06:28:21;;;;;;;14.90;6.80;;;;;;;19.82;71.77;100708.79;110306;1267;82749;-57
2023/06/11 06:30:52;;;;;;;18.40;6.40;;;;;;;19.89;71.53;100710.41;110378;1276;22207;-58
2023/06/11 06:33:23;;;;;;;14.60;6.60;;;;;;;19.94;71.50;100711.33;110401;1265;22139;-59
2023/06/11 06:35:54;;;;;;;15.30;6.80;;;;;;;19.99;70.97;100705.80;110382;1262;23139;-58
2023/06/11 06:38:25;;;;;;;14.70;5.10;;;;;;;20.05;70.74;100705.90;110404;1268;22210;-58
2023/06/11 06:40:56;;;;;;;15.20;5.80;;;;;;;20.14;70.57;100701.66;110433;1264;22208;-58
2023/06/11 06:43:27;;;;;;;14.60;5.60;;;;;;;20.22;70.27;100701.99;106195;1260;5448085;-58
2023/06/11 06:45:58;;;;;;;12.70;5.20;;;;;;;20.28;70.03;100702.85;110405;1276;22195;-58
2023/06/11 06:48:29;;;;;;;15.40;5.20;;;;;;;20.32;69.94;100701.97;110402;1262;22226;-57
2023/06/11 06:51:00;;;;;;;14.50;5.00;;;;;;;20.37;69.47;100696.99;110398;1268;22166;-59
2023/06/11 06:53:31;;;;;;;17.70;6.00;;;;;;;20.41;69.27;100703.39;110382;1261;23072;-59
2023/06/11 06:56:02;;;;;;;13.40;5.20;;;;;;;20.43;68.92;100698.90;110386;1265;22178;-58
2023/06/11 06:58:33;;;;;;;15.20;5.00;;;;;;;20.48;68.75;100702.21;110417;1269;22520;-58
2023/06/11 07:01:04;;;;;;;9.80;4.00;;;;;;;20.53;68.36;100697.91;110397;1276;23053;-57
2023/06/11 07:03:35;;;;;;;12.90;4.10;;;;;;;20.56;68.23;100697.71;110390;1269;22955;-57
2023/06/11 07:06:06;;;;;;;9.90;3.90;;;;;;;20.61;68.01;100695.43;110429;1269;22182;-58
2023/06/11 07:08:38;;;;;;;12.30;4.80;;;;;;;20.65;67.47;100694.11;110423;1268;22193;-56
2023/06/11 07:11:09;;;;;;;12.00;4.10;;;;;;;20.70;67.42;100694.40;110421;1265;22210;-59
2023/06/11 07:13:40;;;;;;;10.50;3.90;;;;;;;20.78;67.24;100695.11;110403;1264;22334;-60
2023/06/11 07:16:11;;;;;;;10.90;4.40;;;;;;;20.82;67.16;100696.74;110395;1268;22681;-60
2023/06/11 07:18:42;;;;;;;13.90;4.60;;;;;;;20.89;66.98;100697.02;110386;1273;22329;-60
2023/06/11 07:21:14;;;;;;;11.80;4.20;;;;;;;20.91;66.17;100701.04;110387;1265;22302;-60
2023/06/11 07:23:45;;;;;;;12.90;4.40;;;;;;;20.91;65.88;100700.53;110418;1262;22320;-60
2023/06/11 07:26:18;;;;;;;11.50;4.10;;;;;;;20.90;65.71;100702.45;110409;1260;22172;-60
2023/06/11 07:28:49;;;;;;;11.50;4.60;;;;;;;20.90;65.58;100700.55;110395;1268;22270;-60
2023/06/11 07:31:20;;;;;;;11.50;4.30;;;;;;;20.90;65.36;100703.70;110398;1269;23512;-60
2023/06/11 07:33:51;;;;;;;12.40;4.50;;;;;;;20.92;65.87;100698.13;110433;1276;22738;-60
2023/06/11 07:36:22;;;;;;;12.10;4.20;;;;;;;21.01;65.72;100697.96;110432;1268;22191;-60
2023/06/11 07:38:53;;;;;;;13.50;5.30;;;;;;;21.07;65.50;100698.75;110446;1268;22209;-60
2023/06/11 07:41:24;;;;;;;16.20;6.10;;;;;;;21.09;65.10;100701.16;110408;1263;22210;-60
2023/06/11 07:43:54;;;;;;;13.20;5.20;;;;;;;21.02;64.80;100705.33;110395;1268;22933;-59
2023/06/11 07:46:25;;;;;;;16.80;5.60;;;;;;;20.96;65.08;100697.34;110438;1260;22357;-60
2023/06/11 07:48:56;;;;;;;15.40;5.90;;;;;;;20.99;65.20;100699.27;110421;1260;22154;-60
2023/06/11 07:51:27;;;;;;;13.10;6.20;;;;;;;21.04;65.19;100703.20;110405;1268;22232;-60
2023/06/11 07:53:58;;;;;;;12.10;5.20;;;;;;;21.08;64.81;100703.85;110432;1268;22173;-59
2023/06/11 07:56:29;;;;;;;12.50;6.10;;;;;;;21.13;64.75;100695.45;110439;1273;22146;-59
2023/06/11 07:59:00;;;;;;;13.60;6.00;;;;;;;21.20;64.56;100699.52;110429;1268;22311;-59
2023/06/11 08:01:32;;;;;;;13.00;5.70;;;;;;;21.24;64.06;100704.92;110421;1260;22118;-60
2023/06/11 08:04:02;;;;;;;14.60;6.60;;;;;;;21.23;63.97;100698.70;110424;1276;22402;-60
2023/06/11 08:06:35;;;;;;;15.80;6.90;;;;;;;21.25;63.89;100699.42;110462;1268;23209;-60
2023/06/11 08:09:06;;;;;;;14.20;6.80;;;;;;;21.31;64.13;100694.77;110435;1262;22374;-60
2023/06/11 08:11:37;;;;;;;14.40;5.80;;;;;;;21.41;63.76;100696.00;110423;1262;22318;-60
2023/06/11 08:14:08;;;;;;;14.30;5.70;;;;;;;21.48;63.02;100698.55;110395;1262;23569;-60
2023/06/11 08:16:39;;;;;;;15.90;5.70;;;;;;;21.49;62.58;100695.08;110391;1265;22605;-60
2023/06/11 08:19:10;;;;;;;12.10;5.10;;;;;;;21.49;62.93;100695.27;110400;1269;22195;-60
2023/06/11 08:21:42;;;;;;;11.60;5.10;;;;;;;21.52;62.61;100694.75;110462;1260;22200;-60
2023/06/11 08:24:12;;;;;;;11.50;4.50;;;;;;;21.53;62.45;100691.11;110441;1268;22234;-60
2023/06/11 08:26:43;;;;;;;13.30;4.10;;;;;;;21.58;61.89;100690.55;110414;1265;22376;-60
2023/06/11 08:29:15;;;;;;;12.70;4.70;;;;;;;21.62;61.06;100690.23;110352;1268;22449;-60
2023/06/11 08:31:46;;;;;;;10.60;3.80;;;;;;;21.64;60.25;100684.82;110387;1265;22153;-60
2023/06/11 08:34:17;;;;;;;10.20;4.40;;;;;;;21.67;60.61;100683.77;110395;1269;22365;-60
2023/06/11 08:36:48;;;;;;;12.30;3.90;;;;;;;21.75;60.30;100683.42;110411;1268;22143;-60
2023/06/11 08:39:18;;;;;;;10.00;3.40;;;;;;;21.82;59.76;100678.64;110396;1268;22255;-60
2023/06/11 08:41:50;;;;;;;12.80;4.20;;;;;;;21.92;59.32;100681.00;110431;1261;22304;-60
2023/06/11 08:44:21;;;;;;;9.80;3.60;;;;;;;21.98;59.29;100683.77;110391;1265;22182;-60
2023/06/11 08:46:53;;;;;;;10.60;4.40;;;;;;;22.05;59.10;100681.70;110416;1268;22196;-60
2023/06/11 08:49:24;;;;;;;15.80;4.40;;;;;;;22.12;59.04;100678.70;110432;1268;22181;-61
2023/06/11 08:51:58;;;;;;;9.70;3.90;;;;;;;22.21;59.16;100677.94;110399;1276;22418;-60
2023/06/11 08:54:30;;;;;;;10.70;3.60;;;;;;;22.29;58.18;100678.61;110413;1269;22234;-60
2023/06/11 08:57:01;;;;;;;10.60;3.60;;;;;;;22.34;57.79;100678.14;110418;1268;22996;-58
2023/06/11 08:59:32;;;;;;;13.70;2.90;;;;;;;22.36;56.42;100673.38;110431;1272;22412;-58
2023/06/11 09:02:03;;;;;;;11.50;3.70;;;;;;;22.31;55.66;100675.41;110415;1268;22138;-59
2023/06/11 09:04:34;;;;;;;12.80;3.70;;;;;;;22.24;56.16;100674.92;110440;1268;22169;-57
2023/06/11 09:07:07;;;;;;;7.70;2.80;;;;;;;22.19;55.50;100681.77;110438;1276;22171;-59
2023/06/11 09:09:38;;;;;;;7.20;2.70;;;;;;;22.12;55.83;100679.69;110400;1276;22780;-59
2023/06/11 09:12:11;;;;;;;10.50;3.40;;;;;;;22.18;55.73;100672.75;110412;1268;22157;-59
2023/06/11 09:14:51;;;;;;;14.80;3.30;;;;;;;22.30;55.50;100669.90;110398;1272;22236;-59
2023/06/11 09:17:22;;;;;;;10.60;3.50;;;;;;;22.42;55.16;100671.95;110432;1268;22181;-59
2023/06/11 09:19:56;;;;;;;14.40;3.60;;;;;;;22.54;55.01;100665.43;110392;1268;22291;-58
2023/06/11 09:22:31;;;;;;;8.80;2.80;;;;;;;22.68;54.80;100671.74;110427;1269;22163;-59
2023/06/11 09:25:08;;;;;;;9.50;3.10;;;;;;;22.73;53.93;100668.05;110473;1276;22210;-59
2023/06/11 09:27:40;;;;;;;10.40;2.90;;;;;;;22.74;53.25;100676.94;110443;1276;22174;-59
2023/06/11 09:30:15;;;;;;;8.70;2.60;;;;;;;22.65;51.69;100669.44;110419;1268;22170;-59
2023/06/11 09:32:48;;;;;;;8.70;2.50;;;;;;;22.64;51.89;100663.09;110416;1265;22962;-59
2023/06/11 09:35:19;;;;;;;7.40;2.70;;;;;;;22.72;52.09;100656.16;110429;1268;22376;-59
2023/06/11 09:37:53;;;;;;;8.80;2.40;;;;;;;22.84;51.92;100666.95;110421;1273;22196;-59
2023/06/11 09:40:24;;;;;;;10.70;3.20;;;;;;;22.90;51.31;100660.17;110416;1269;23327;-59
2023/06/11 09:42:56;;;;;;;12.40;3.30;;;;;;;22.98;51.39;100659.67;110404;1276;22193;-59
2023/06/11 09:45:27;;;;;;;10.90;3.80;;;;;;;23.09;51.24;100657.38;110421;1260;22154;-59
2023/06/11 09:47:59;;;;;;;9.70;2.80;;;;;;;23.05;50.55;100657.20;110408;1268;22218;-59
2023/06/11 09:50:33;;;;;;;7.30;2.60;;;;;;;23.03;50.43;100661.70;110450;1268;22975;-60
2023/06/11 09:53:04;;;;;;;10.60;2.90;;;;;;;23.04;50.41;100661.73;110427;1268;22171;-57
2023/06/11 09:55:36;;;;;;;12.50;2.70;;;;;;;22.99;49.76;100663.83;110439;1269;22383;-59
2023/06/11 09:58:07;;;;;;;8.20;2.70;;;;;;;22.93;49.35;100659.70;110449;1276;22938;-58
2023/06/11 10:00:38;;;;;;;11.50;2.40;;;;;;;22.85;49.11;100662.27;110431;1273;22327;-59
2023/06/11 10:03:09;;;;;;;6.90;2.20;;;;;;;22.81;48.57;100656.25;110425;1268;23206;-61
2023/06/11 10:05:40;;;;;;;9.40;2.00;;;;;;;22.83;48.23;100660.11;110423;1267;22453;-59
2023/06/11 10:08:17;;;;;;;9.10;2.30;;;;;;;22.86;47.57;100658.42;110436;1268;22195;-62
2023/06/11 10:10:51;;;;;;;12.10;2.10;;;;;;;22.92;47.49;100656.61;110451;1268;22329;-59
2023/06/11 10:13:33;;;;;;;5.70;1.70;;;;;;;23.00;47.24;100656.31;110439;1269;22215;-60
2023/06/11 10:16:05;;;;;;;10.20;2.80;;;;;;;23.06;46.92;100656.60;110436;1276;22405;-60
2023/06/11 10:18:36;;;;;;;8.50;2.00;;;;;;;23.16;47.04;100655.05;110485;1273;22278;-61
2023/06/11 10:21:07;;;;;;;8.60;2.10;;;;;;;23.28;46.95;100660.81;110435;1272;22186;-61
2023/06/11 10:23:39;;;;;;;10.30;2.10;;;;;;;23.40;45.97;100662.77;110417;1273;22159;-61
2023/06/11 10:26:11;;;;;;;8.50;2.00;;;;;;;23.48;45.83;100669.00;110441;1268;23109;-60
2023/06/11 10:28:48;;;;;;;6.70;1.70;;;;;;;23.55;45.63;100670.64;110445;1268;22141;-61
2023/06/11 10:31:28;;;;;;;12.20;2.00;;;;;;;23.62;45.39;100663.81;110447;1268;22346;-60
2023/06/11 10:34:04;;;;;;;10.70;2.50;;;;;;;23.70;44.82;100665.34;110428;1276;22177;-61
2023/06/11 10:36:38;;;;;;;6.70;1.60;;;;;;;23.77;44.81;100653.84;110466;1268;22168;-61
2023/06/11 10:39:11;;;;;;;7.90;1.80;;;;;;;23.87;44.01;100657.50;110434;1266;22198;-60
2023/06/11 10:41:43;;;;;;;6.10;1.60;;;;;;;23.90;43.38;100657.45;110443;1268;23076;-61
2023/06/11 10:44:17;;;;;;;11.30;2.20;;;;;;;23.89;42.95;100660.44;110444;1262;22364;-61
2023/06/11 10:46:52;;;;;;;5.50;1.40;;;;;;;23.92;42.49;100659.11;110477;1273;22274;-61
2023/06/11 10:49:26;;;;;;;8.30;1.70;;;;;;;23.89;41.79;100658.77;110464;1269;22257;-59
2023/06/11 10:52:00;;;;;;;12.30;2.30;;;;;;;23.91;42.22;100649.13;110413;1276;22168;-61
2023/06/11 10:54:36;;;;;;;12.40;2.20;;;;;;;23.98;41.57;100648.55;110465;1269;22342;-61
2023/06/11 10:57:08;;;;;;;8.60;2.10;;;;;;;24.05;41.56;100650.51;110367;1262;23040;-60
2023/06/11 10:59:40;;;;;;;10.50;2.20;;;;;;;24.11;41.86;100654.27;110423;1268;22481;-60
2023/06/11 11:02:14;;;;;;;8.10;1.70;;;;;;;24.10;41.80;100658.25;110372;1265;22231;-61
2023/06/11 11:04:55;;;;;;;9.90;1.70;;;;;;;24.07;41.54;100654.85;110400;1265;22191;-61
2023/06/11 11:07:34;;;;;;;5.70;1.90;;;;;;;23.99;40.36;100657.00;110448;1261;22833;-61
2023/06/11 11:10:06;;;;;;;6.00;1.80;;;;;;;23.81;40.17;100655.86;110425;1276;22805;-61
2023/06/11 11:12:44;;;;;;;6.60;2.20;;;;;;;23.67;40.75;100662.62;110420;1273;22385;-61
2023/06/11 11:15:15;;;;;;;7.20;1.60;;;;;;;23.59;40.22;100662.54;110426;1265;22787;-61
2023/06/11 11:17:47;;;;;;;7.20;1.90;;;;;;;23.53;40.09;100658.96;110421;1268;22229;-60
2023/06/11 11:20:20;;;;;;;9.50;1.80;;;;;;;23.50;40.13;100661.90;110434;1265;22152;-59
2023/06/11 11:22:54;;;;;;;6.60;1.70;;;;;;;23.47;39.95;100656.41;110411;1265;22137;-61
2023/06/11 11:25:27;;;;;;;5.70;1.90;;;;;;;23.40;40.13;100661.00;110418;1269;22135;-61
2023/06/11 11:27:59;;;;;;;6.40;1.90;;;;;;;23.28;39.44;100650.66;110460;1268;22329;-59
2023/06/11 11:30:31;;;;;;;6.70;1.80;;;;;;;23.21;40.02;100653.99;110484;1261;22337;-61
2023/06/11 11:33:02;;;;;;;8.60;1.70;;;;;;;23.20;39.89;100648.02;110440;1265;22223;-59